Time;durP1;ratioP1;P1;durP2;ratioP2;P2;SDS_P1;SDS_P2;PMS_P1;PMS_P2;Temp;Humidity;BMP_temperature;BMP_pressure;BME280_temperature;BME280_humidity;BME280_pressure;Samples;Min_cycle;Max_cycle;Signal;HPM_P1;HPM_P2
2024/02/25 00:01:08;;;;;;;8.40;3.00;;;;;;;4.14;66.95;99346.03;10371772;28;20055;-60
2024/02/25 00:06:09;;;;;;;6.18;2.83;;;;;;;3.91;67.92;99350.22;10369679;28;20073;-60
2024/02/25 00:11:11;;;;;;;7.25;2.53;;;;;;;3.87;67.98;99347.06;10371720;28;20127;-60
2024/02/25 00:16:12;;;;;;;5.40;2.88;;;;;;;4.00;67.63;99353.78;10373243;28;20073;-60
2024/02/25 00:21:14;;;;;;;5.15;2.50;;;;;;;4.05;67.02;99356.78;10370172;28;20077;-60
2024/02/25 00:26:15;;;;;;;4.25;2.58;;;;;;;4.04;67.09;99347.16;10373151;28;20038;-60
2024/02/25 00:31:17;;;;;;;5.05;2.75;;;;;;;3.88;67.71;99351.38;10367707;28;20421;-60
2024/02/25 00:36:18;;;;;;;4.70;2.63;;;;;;;3.91;67.71;99355.53;10371382;28;20381;-60
2024/02/25 00:41:20;;;;;;;6.63;2.60;;;;;;;3.87;67.61;99340.91;10370326;28;20048;-60
2024/02/25 00:46:21;;;;;;;5.22;2.92;;;;;;;3.93;67.72;99321.66;10372063;28;20056;-61
2024/02/25 00:51:23;;;;;;;7.20;2.70;;;;;;;3.97;67.74;99325.69;10365477;28;20050;-59
2024/02/25 00:56:24;;;;;;;5.82;2.45;;;;;;;3.82;67.39;99320.13;10375478;28;20099;-59
2024/02/25 01:01:26;;;;;;;5.70;2.53;;;;;;;3.74;68.70;99320.09;10367972;28;20451;-59
2024/02/25 01:06:27;;;;;;;4.30;2.30;;;;;;;3.66;68.67;99312.88;10363954;28;20507;-59
2024/02/25 01:11:29;;;;;;;7.47;2.03;;;;;;;3.62;68.72;99308.88;10374772;28;20354;-59
2024/02/25 01:16:31;;;;;;;5.22;2.20;;;;;;;3.70;68.68;99294.81;10374298;28;20068;-57
2024/02/25 01:21:32;;;;;;;5.63;1.83;;;;;;;3.81;68.20;99291.88;10369499;28;20054;-57
2024/02/25 01:26:41;;;;;;;7.85;1.73;;;;;;;3.81;68.14;99296.34;10371246;28;20382;-58
2024/02/25 01:31:43;;;;;;;4.32;1.95;;;;;;;3.86;68.90;99283.44;10365198;28;20044;-58
2024/02/25 01:36:45;;;;;;;2.85;1.52;;;;;;;3.98;68.28;99280.31;10369391;28;20072;-58
2024/02/25 01:41:47;;;;;;;2.88;1.55;;;;;;;4.13;68.71;99277.88;10374233;28;20041;-58
2024/02/25 01:46:48;;;;;;;5.10;2.13;;;;;;;4.26;68.49;99279.25;10372173;28;20461;-57
2024/02/25 01:51:49;;;;;;;2.63;1.65;;;;;;;4.39;68.30;99279.63;10368396;28;20041;-60
2024/02/25 01:56:51;;;;;;;5.63;2.10;;;;;;;4.41;68.87;99274.16;10373448;28;20049;-58
2024/02/25 02:01:54;;;;;;;5.97;1.52;;;;;;;4.61;68.98;99262.19;10374830;28;20065;-63
2024/02/25 02:06:57;;;;;;;5.55;1.80;;;;;;;4.79;68.87;99261.22;10371245;28;20434;-64
2024/02/25 02:11:58;;;;;;;5.03;2.17;;;;;;;4.96;68.73;99247.75;10377059;28;20512;-61
2024/02/25 02:17:03;;;;;;;4.68;2.10;;;;;;;5.00;68.33;99242.91;10379601;28;20042;-63
2024/02/25 02:22:05;;;;;;;5.00;2.20;;;;;;;5.05;68.47;99251.22;10370833;28;20119;-64
2024/02/25 02:27:06;;;;;;;4.50;1.65;;;;;;;5.11;68.97;99249.72;10370502;28;20042;-64
2024/02/25 02:32:07;;;;;;;7.28;2.03;;;;;;;5.30;68.20;99237.88;10378658;28;20049;-64
2024/02/25 02:37:09;;;;;;;11.07;3.50;;;;;;;5.37;68.03;99228.19;10372491;28;20049;-64
2024/02/25 02:42:11;;;;;;;5.05;2.47;;;;;;;5.37;68.10;99225.53;10371272;28;20048;-63
2024/02/25 02:47:15;;;;;;;3.85;2.47;;;;;;;5.23;68.97;99218.22;10373263;28;20137;-65
2024/02/25 02:52:17;;;;;;;3.05;1.95;;;;;;;5.30;68.34;99220.06;10374043;28;20038;-63
2024/02/25 02:57:20;;;;;;;5.22;1.95;;;;;;;5.21;68.81;99210.41;10370113;28;20038;-65
2024/02/25 03:02:22;;;;;;;3.97;2.08;;;;;;;5.31;68.95;99210.22;10381054;28;20536;-63
2024/02/25 03:07:23;;;;;;;2.80;1.45;;;;;;;5.34;68.43;99213.38;10369587;28;20038;-63
2024/02/25 03:12:25;;;;;;;4.75;1.70;;;;;;;5.32;67.95;99203.91;10372676;28;20046;-60
2024/02/25 03:17:26;;;;;;;5.05;2.13;;;;;;;5.28;69.15;99215.91;10376945;28;20049;-59
2024/02/25 03:22:28;;;;;;;7.65;2.40;;;;;;;5.25;68.37;99209.09;10369503;28;20045;-59
2024/02/25 03:27:29;;;;;;;8.07;2.47;;;;;;;5.22;68.99;99198.75;10372623;28;20056;-60
2024/02/25 03:32:31;;;;;;;4.50;1.80;;;;;;;5.32;68.71;99202.06;10369953;28;20042;-59
2024/02/25 03:37:33;;;;;;;2.72;1.90;;;;;;;5.40;68.61;99203.06;10369202;28;20045;-59
2024/02/25 03:42:34;;;;;;;3.92;2.55;;;;;;;5.59;68.35;99204.47;10375096;28;20049;-59
2024/02/25 03:47:35;;;;;;;4.65;1.88;;;;;;;5.71;67.76;99201.28;10370694;28;20049;-59
2024/02/25 03:52:38;;;;;;;7.40;1.52;;;;;;;5.79;67.57;99191.59;10372433;28;20077;-59
2024/02/25 03:57:40;;;;;;;5.35;1.80;;;;;;;5.80;67.98;99187.91;10371481;28;20049;-59
2024/02/25 04:02:41;;;;;;;4.07;1.95;;;;;;;5.75;68.30;99186.59;10377324;28;20499;-59
2024/02/25 04:07:46;;;;;;;11.40;3.20;;;;;;;5.74;67.92;99186.75;10347638;28;20053;-59
2024/02/25 04:12:47;;;;;;;2.35;1.42;;;;;;;5.75;67.85;99188.44;10366706;28;20615;-59
2024/02/25 04:17:49;;;;;;;3.55;1.90;;;;;;;5.79;67.79;99189.75;10371210;28;20045;-59
2024/02/25 04:22:50;;;;;;;4.65;2.28;;;;;;;5.84;67.81;99183.88;10372117;28;20052;-64
2024/02/25 04:27:52;;;;;;;4.53;2.35;;;;;;;5.86;68.13;99185.34;10368997;28;20062;-63
2024/02/25 04:32:53;;;;;;;4.53;2.33;;;;;;;5.90;67.59;99177.84;10365645;28;20057;-64
2024/02/25 04:37:55;;;;;;;6.60;2.30;;;;;;;5.85;68.46;99175.72;10367859;28;20137;-63
2024/02/25 04:42:56;;;;;;;5.30;2.10;;;;;;;5.84;67.72;99173.22;10368067;28;20120;-63
2024/02/25 04:47:58;;;;;;;3.13;1.92;;;;;;;5.95;67.65;99180.84;10374563;28;20417;-62
2024/02/25 04:52:59;;;;;;;4.85;1.75;;;;;;;5.85;68.01;99177.56;10372776;28;20050;-64
2024/02/25 04:58:02;;;;;;;3.28;2.00;;;;;;;5.74;68.22;99174.25;10371541;28;20485;-64
2024/02/25 05:03:04;;;;;;;3.08;1.80;;;;;;;5.78;68.04;99176.56;10371076;28;20037;-63
2024/02/25 05:08:06;;;;;;;2.78;2.05;;;;;;;5.58;69.22;99203.66;10340676;28;20828;-64
2024/02/25 05:13:08;;;;;;;2.72;1.58;;;;;;;5.60;69.59;99204.31;10371459;28;20404;-63
2024/02/25 05:18:09;;;;;;;4.47;1.52;;;;;;;5.70;69.34;99193.44;10369634;28;20033;-66
2024/02/25 05:23:11;;;;;;;2.45;1.45;;;;;;;5.81;69.15;99194.91;10369188;28;20045;-66
2024/02/25 05:28:12;;;;;;;4.10;1.73;;;;;;;5.90;68.93;99191.19;10359874;28;20409;-65
2024/02/25 05:33:13;;;;;;;2.10;1.30;;;;;;;6.03;68.78;99198.66;10364625;28;20647;-58
2024/02/25 05:38:16;;;;;;;3.90;1.52;;;;;;;6.07;69.59;99191.97;10368445;28;20870;-58
2024/02/25 05:43:17;;;;;;;4.85;1.08;;;;;;;6.15;69.33;99187.41;10373776;28;20045;-58
2024/02/25 05:48:18;;;;;;;1.52;0.60;;;;;;;6.20;69.38;99194.03;10380485;28;20037;-60
2024/02/25 05:53:20;;;;;;;5.28;0.77;;;;;;;6.20;69.21;99194.03;10379858;28;20093;-58
2024/02/25 05:58:21;;;;;;;1.08;0.45;;;;;;;6.21;69.60;99193.03;10378543;28;20042;-59
2024/02/25 06:03:23;;;;;;;5.63;0.70;;;;;;;6.25;69.74;99202.34;10371877;28;20049;-59
2024/02/25 06:08:24;;;;;;;2.10;0.57;;;;;;;6.28;69.00;99204.66;10374298;28;20041;-58
2024/02/25 06:13:26;;;;;;;0.98;0.50;;;;;;;6.30;68.97;99210.66;10379003;28;20040;-59
2024/02/25 06:18:27;;;;;;;1.73;0.47;;;;;;;6.41;69.20;99201.41;10378081;28;20037;-61
2024/02/25 06:23:29;;;;;;;1.85;0.52;;;;;;;6.58;68.79;99208.31;10382731;28;20132;-60
2024/02/25 06:28:30;;;;;;;4.20;0.90;;;;;;;6.70;68.35;99200.72;10388642;28;20052;-60
2024/02/25 06:33:32;;;;;;;2.00;0.60;;;;;;;6.76;68.50;99213.34;10381610;28;20061;-62
2024/02/25 06:38:35;;;;;;;1.67;0.70;;;;;;;6.92;67.44;99218.53;10384104;28;20286;-61
2024/02/25 06:43:37;;;;;;;3.38;0.70;;;;;;;6.98;68.04;99216.16;10375376;28;20104;-68
2024/02/25 06:48:38;;;;;;;1.92;0.60;;;;;;;7.03;67.84;99211.09;10376877;28;20037;-66
2024/02/25 06:53:40;;;;;;;2.75;1.02;;;;;;;7.08;67.35;99224.75;10378377;28;20474;-67
2024/02/25 06:58:42;;;;;;;1.80;0.70;;;;;;;7.15;67.55;99223.03;10368708;28;20049;-68
2024/02/25 07:03:45;;;;;;;4.80;1.08;;;;;;;7.27;68.06;99215.38;10376882;28;20045;-66
2024/02/25 07:08:46;;;;;;;1.98;0.95;;;;;;;7.38;67.45;99227.47;10375453;28;20685;-68
2024/02/25 07:13:48;;;;;;;1.10;0.68;;;;;;;7.49;66.98;99217.13;10375211;28;20065;-68
2024/02/25 07:18:50;;;;;;;1.88;0.70;;;;;;;7.57;67.58;99218.06;10356014;28;20046;-67
2024/02/25 07:23:51;;;;;;;1.25;0.70;;;;;;;7.61;67.70;99219.38;10374784;28;20056;-68
2024/02/25 07:28:53;;;;;;;3.10;0.90;;;;;;;7.61;67.40;99214.84;10372205;28;20050;-67
2024/02/25 07:33:54;;;;;;;1.95;0.85;;;;;;;7.58;67.69;99217.88;10370904;28;20307;-65
2024/02/25 07:38:56;;;;;;;1.30;0.60;;;;;;;7.52;67.41;99223.97;10375422;28;20511;-66
2024/02/25 07:43:58;;;;;;;3.03;0.68;;;;;;;7.44;67.58;99224.03;10372073;28;20041;-65
2024/02/25 07:48:59;;;;;;;2.25;0.60;;;;;;;7.38;67.70;99228.28;10369007;28;20487;-67
2024/02/25 07:54:06;;;;;;;2.10;0.55;;;;;;;7.28;67.96;99227.72;10384033;28;20058;-60
2024/02/25 07:59:07;;;;;;;2.67;0.75;;;;;;;7.30;68.00;99231.88;10389069;28;20050;-59
2024/02/25 08:04:09;;;;;;;1.33;0.60;;;;;;;7.47;67.06;99231.72;10395654;28;20056;-60
2024/02/25 08:09:10;;;;;;;0.88;0.38;;;;;;;7.75;66.95;99231.88;10392891;28;20140;-60
2024/02/25 08:14:12;;;;;;;0.90;0.40;;;;;;;7.86;66.34;99227.91;10379100;28;21112;-60
2024/02/25 08:19:13;;;;;;;1.05;0.40;;;;;;;7.98;66.16;99221.09;10381146;28;20049;-58
2024/02/25 08:24:17;;;;;;;2.90;0.50;;;;;;;8.14;65.90;99226.22;10386212;28;20049;-61
2024/02/25 08:29:18;;;;;;;1.00;0.50;;;;;;;8.21;66.08;99231.63;10377152;28;20424;-58
2024/02/25 08:34:20;;;;;;;1.25;0.40;;;;;;;8.33;65.82;99234.66;10390646;28;20048;-58
2024/02/25 08:39:23;;;;;;;2.40;0.40;;;;;;;8.51;65.43;99232.41;10368282;28;20033;-58
2024/02/25 08:44:25;;;;;;;1.10;0.73;;;;;;;8.77;64.64;99230.16;10372577;28;20053;-59
2024/02/25 08:49:26;;;;;;;1.05;0.40;;;;;;;9.04;64.47;99226.69;10371524;28;20045;-62
2024/02/25 08:54:28;;;;;;;1.00;0.40;;;;;;;9.15;63.92;99228.03;10382615;28;20072;-67
2024/02/25 08:59:29;;;;;;;2.30;0.47;;;;;;;9.32;64.00;99224.03;10369828;28;20046;-66
2024/02/25 09:04:31;;;;;;;1.67;0.40;;;;;;;9.57;63.63;99217.38;10350937;28;20714;-67
2024/02/25 09:09:33;;;;;;;0.90;0.40;;;;;;;9.67;63.27;99215.16;10367695;28;20092;-64
2024/02/25 09:14:34;;;;;;;4.40;0.70;;;;;;;9.66;63.21;99210.84;10365192;28;20042;-63
2024/02/25 09:19:36;;;;;;;0.73;0.35;;;;;;;9.58;63.46;99213.66;10349114;28;20077;-64
2024/02/25 09:24:37;;;;;;;2.13;0.38;;;;;;;9.51;63.38;99206.41;10367865;28;20073;-66
2024/02/25 09:29:41;;;;;;;2.13;0.45;;;;;;;9.71;62.98;99211.06;10346203;28;20048;-63
2024/02/25 09:34:44;;;;;;;1.58;0.43;;;;;;;9.86;62.57;99218.97;10361030;28;20053;-63
2024/02/25 09:39:47;;;;;;;0.50;0.30;;;;;;;10.02;61.81;99207.91;10371517;28;20053;-66
2024/02/25 09:44:53;;;;;;;4.22;0.20;;;;;;;10.22;61.64;99191.84;10362052;28;20137;-65
2024/02/25 09:49:55;;;;;;;1.23;0.30;;;;;;;10.14;61.64;99208.16;10366180;28;20112;-64
2024/02/25 09:54:58;;;;;;;2.13;0.70;;;;;;;10.12;61.38;99211.03;10364967;28;20050;-61
2024/02/25 09:59:59;;;;;;;1.92;0.20;;;;;;;9.90;61.03;99210.31;10356085;28;20132;-62
2024/02/25 10:05:03;;;;;;;0.50;0.40;;;;;;;9.89;60.86;99214.06;10361560;28;20045;-62
2024/02/25 10:10:05;;;;;;;0.50;0.30;;;;;;;9.82;60.80;99218.56;10356362;28;20068;-63
2024/02/25 10:15:09;;;;;;;0.82;0.22;;;;;;;9.83;61.16;99212.13;10362271;28;20050;-62
2024/02/25 10:20:11;;;;;;;2.72;0.28;;;;;;;10.11;60.79;99203.16;10361656;28;20065;-62
2024/02/25 10:25:13;;;;;;;1.13;0.40;;;;;;;10.30;60.21;99202.44;10360064;28;20133;-63
2024/02/25 10:30:14;;;;;;;0.80;0.40;;;;;;;10.46;60.21;99195.84;10366090;28;20535;-62
2024/02/25 10:35:16;;;;;;;0.52;0.20;;;;;;;10.57;60.03;99194.44;10368939;28;20053;-62
2024/02/25 10:40:18;;;;;;;0.90;0.32;;;;;;;10.75;59.78;99190.34;10367410;28;20678;-62
2024/02/25 10:45:21;;;;;;;0.50;0.20;;;;;;;10.96;59.08;99183.91;10367505;28;20046;-63
2024/02/25 10:50:24;;;;;;;0.65;0.30;;;;;;;10.91;59.14;99189.91;10366271;28;20042;-62
2024/02/25 10:55:26;;;;;;;0.93;0.40;;;;;;;10.77;59.02;99180.19;10370484;28;20042;-64
2024/02/25 11:00:28;;;;;;;0.47;0.20;;;;;;;11.05;58.82;99179.97;10367250;28;20050;-63
2024/02/25 11:05:29;;;;;;;0.30;0.17;;;;;;;11.29;57.91;99170.44;10373582;28;20072;-63
2024/02/25 11:10:33;;;;;;;0.47;0.40;;;;;;;11.24;58.31;99167.56;10366760;28;20042;-63
2024/02/25 11:15:36;;;;;;;0.82;0.30;;;;;;;11.46;57.41;99160.06;10354924;28;20140;-61
2024/02/25 11:20:37;;;;;;;0.63;0.30;;;;;;;11.60;57.32;99158.97;10371905;28;20405;-62
2024/02/25 11:25:40;;;;;;;0.40;0.20;;;;;;;12.15;55.86;99139.69;10365479;28;20065;-63
2024/02/25 11:30:44;;;;;;;0.40;0.20;;;;;;;12.36;55.30;99137.69;10367628;28;20049;-64
2024/02/25 11:35:46;;;;;;;0.35;0.20;;;;;;;12.52;54.92;99131.78;10369007;28;20042;-62
2024/02/25 11:40:49;;;;;;;0.47;0.30;;;;;;;12.33;54.89;99135.44;10376662;28;20041;-62
2024/02/25 11:45:51;;;;;;;1.55;0.20;;;;;;;12.07;55.42;99140.78;10352203;28;20038;-62
2024/02/25 11:50:53;;;;;;;0.55;0.20;;;;;;;11.91;55.39;99125.13;10367210;28;20053;-62
2024/02/25 11:55:55;;;;;;;1.52;0.30;;;;;;;12.10;54.65;99128.72;10365458;28;20080;-63
2024/02/25 12:00:57;;;;;;;0.35;0.30;;;;;;;12.16;54.31;99124.34;10368132;28;20044;-64
2024/02/25 12:06:00;;;;;;;0.45;0.30;;;;;;;12.06;54.32;99120.25;10337417;28;20178;-63
2024/02/25 12:11:02;;;;;;;0.45;0.28;;;;;;;11.87;54.88;99113.09;10366725;28;20126;-65
2024/02/25 12:16:04;;;;;;;1.05;0.30;;;;;;;11.79;55.12;99113.31;10365892;28;20096;-64
2024/02/25 12:21:07;;;;;;;0.80;0.20;;;;;;;11.74;54.65;99115.84;10366066;28;20045;-62
2024/02/25 12:26:08;;;;;;;1.63;0.20;;;;;;;11.63;54.58;99107.41;10357045;28;20124;-64
2024/02/25 12:31:11;;;;;;;0.40;0.20;;;;;;;11.67;55.08;99095.19;10367602;28;20048;-62
2024/02/25 12:36:12;;;;;;;2.15;0.10;;;;;;;11.78;54.10;99090.16;10351932;28;20043;-65
2024/02/25 12:41:15;;;;;;;0.40;0.20;;;;;;;12.23;53.08;99084.75;10366432;28;20076;-67
2024/02/25 12:46:20;;;;;;;0.50;0.20;;;;;;;12.44;53.02;99075.44;10372673;28;20138;-67
2024/02/25 12:51:21;;;;;;;0.63;0.25;;;;;;;12.68;52.62;99073.81;10355912;28;20052;-67
2024/02/25 12:56:23;;;;;;;1.40;0.10;;;;;;;13.20;51.74;99068.09;10365884;28;20057;-67
2024/02/25 13:01:25;;;;;;;2.30;0.20;;;;;;;13.50;51.00;99062.78;10363806;28;20038;-67
2024/02/25 13:06:26;;;;;;;1.00;0.30;;;;;;;13.73;50.85;99059.38;10345897;28;20509;-65
2024/02/25 13:11:30;;;;;;;1.55;0.60;;;;;;;13.61;51.13;99056.63;10349399;28;20064;-65
2024/02/25 13:16:34;;;;;;;0.75;0.30;;;;;;;13.31;51.19;99059.28;10370245;28;20045;-64
2024/02/25 13:21:36;;;;;;;1.20;0.30;;;;;;;13.24;51.17;99051.22;10368538;28;20049;-67
2024/02/25 13:26:38;;;;;;;1.30;0.38;;;;;;;13.42;50.68;99045.00;10364078;28;20136;-65
2024/02/25 13:31:40;;;;;;;1.13;0.30;;;;;;;13.54;50.29;99047.75;10359633;28;20050;-65
2024/02/25 13:36:42;;;;;;;0.35;0.20;;;;;;;14.06;49.66;99039.16;10366853;28;20065;-64
2024/02/25 13:41:43;;;;;;;0.20;0.10;;;;;;;13.99;49.52;99038.44;10367757;28;20054;-65
2024/02/25 13:46:45;;;;;;;1.20;0.20;;;;;;;13.91;49.82;99027.97;10364835;28;20097;-67
2024/02/25 13:51:46;;;;;;;0.60;0.22;;;;;;;13.90;49.88;99019.00;10337076;28;20046;-66
2024/02/25 13:56:48;;;;;;;1.05;0.30;;;;;;;13.65;50.12;99013.78;10362981;28;20560;-65
2024/02/25 14:01:50;;;;;;;0.50;0.40;;;;;;;13.64;49.77;99001.31;10355540;28;20049;-64
2024/02/25 14:06:52;;;;;;;0.57;0.40;;;;;;;16.80;43.43;98975.50;10386620;28;20088;-69
2024/02/25 14:11:53;;;;;;;0.28;0.00;;;;;;;15.49;45.63;98984.75;10381382;28;20065;-68
2024/02/25 14:16:57;;;;;;;0.70;0.10;;;;;;;14.35;46.92;98991.47;10380459;28;20061;-67
2024/02/25 14:21:59;;;;;;;1.25;0.40;;;;;;;17.62;41.27;98960.19;10358463;28;20056;-65
2024/02/25 14:27:00;;;;;;;0.80;0.10;;;;;;;20.54;37.49;98947.00;10378541;28;20484;-67
2024/02/25 14:32:02;;;;;;;1.08;0.10;;;;;;;19.92;39.02;98951.69;10384771;28;20053;-64
2024/02/25 14:37:04;;;;;;;0.30;0.00;;;;;;;17.69;42.58;98972.75;10385255;28;20044;-64
2024/02/25 14:42:06;;;;;;;0.40;0.10;;;;;;;16.33;44.07;98972.38;10378715;28;20042;-64
2024/02/25 14:47:08;;;;;;;0.93;0.10;;;;;;;15.95;44.48;98969.31;10378572;28;20566;-67
2024/02/25 14:52:10;;;;;;;1.13;0.10;;;;;;;15.18;45.24;98962.47;10367632;28;20408;-67
2024/02/25 14:57:11;;;;;;;0.95;0.30;;;;;;;14.81;45.95;98970.09;10367291;28;20481;-66
2024/02/25 15:02:13;;;;;;;1.25;0.28;;;;;;;14.42;46.08;98965.16;10362267;28;20132;-68
2024/02/25 15:07:15;;;;;;;0.57;0.20;;;;;;;14.16;46.57;98962.91;10375529;28;20046;-67
2024/02/25 15:12:19;;;;;;;0.95;0.28;;;;;;;14.02;46.68;98956.91;10385854;28;20113;-67
2024/02/25 15:17:21;;;;;;;0.40;0.20;;;;;;;13.79;47.21;98955.00;10382203;28;20054;-67
2024/02/25 15:22:23;;;;;;;0.73;0.17;;;;;;;13.87;46.78;98947.38;10375971;28;20048;-67
2024/02/25 15:27:25;;;;;;;0.22;0.10;;;;;;;15.04;44.71;98923.22;10372277;28;20060;-65
2024/02/25 15:32:28;;;;;;;0.60;0.08;;;;;;;15.60;43.96;98909.88;10369937;28;20038;-64
2024/02/25 15:37:30;;;;;;;1.75;0.10;;;;;;;16.94;42.39;98896.44;10360119;28;20038;-68
2024/02/25 15:42:32;;;;;;;1.20;0.15;;;;;;;17.99;41.16;98894.22;10349895;28;20400;-69
2024/02/25 15:47:35;;;;;;;0.77;0.20;;;;;;;18.55;41.13;98893.75;10370072;28;20049;-68
2024/02/25 15:52:36;;;;;;;1.08;0.20;;;;;;;18.99;40.33;98885.25;10366266;28;20072;-68
2024/02/25 15:57:39;;;;;;;0.70;0.20;;;;;;;18.35;41.08;98888.22;10373519;28;20041;-67
2024/02/25 16:02:41;;;;;;;0.20;0.10;;;;;;;17.86;41.03;98883.78;10372923;28;20057;-69
2024/02/25 16:07:46;;;;;;;1.73;0.13;;;;;;;17.25;41.62;98876.69;10371258;28;20046;-69
2024/02/25 16:12:48;;;;;;;1.67;0.20;;;;;;;16.49;42.55;98886.63;10367511;28;20042;-67
2024/02/25 16:17:49;;;;;;;0.70;0.10;;;;;;;15.86;42.75;98881.38;10369234;28;20046;-63
2024/02/25 16:22:51;;;;;;;0.63;0.20;;;;;;;15.34;43.72;98876.94;10368030;28;20045;-68
2024/02/25 16:27:53;;;;;;;0.90;0.47;;;;;;;14.71;44.43;98884.16;10370183;28;20057;-68
2024/02/25 16:32:54;;;;;;;0.40;0.20;;;;;;;14.27;45.03;98886.41;10368074;28;20060;-68
2024/02/25 16:37:55;;;;;;;0.40;0.20;;;;;;;13.78;45.65;98883.94;10366075;28;20081;-67
2024/02/25 16:42:57;;;;;;;1.67;0.10;;;;;;;13.34;46.26;98879.88;10370074;28;20576;-67
2024/02/25 16:47:58;;;;;;;1.70;0.40;;;;;;;12.83;46.90;98876.59;10372987;28;20133;-67
2024/02/25 16:53:00;;;;;;;0.82;0.30;;;;;;;12.36;47.79;98870.91;10366941;28;20065;-66
2024/02/25 16:58:02;;;;;;;1.05;0.30;;;;;;;12.06;47.60;98879.72;10368613;28;20493;-67
2024/02/25 17:03:03;;;;;;;0.63;0.20;;;;;;;11.68;48.13;98877.97;10366164;28;20069;-65
2024/02/25 17:08:05;;;;;;;1.08;0.20;;;;;;;11.39;48.44;98882.09;10367981;28;20144;-66
2024/02/25 17:13:06;;;;;;;2.60;0.45;;;;;;;11.15;48.73;98881.03;10362798;28;20396;-66
2024/02/25 17:18:08;;;;;;;0.63;0.30;;;;;;;10.91;49.62;98870.81;10367985;28;20056;-66
2024/02/25 17:23:10;;;;;;;0.63;0.40;;;;;;;10.74;49.83;98869.63;10482300;22;20034;-85
2024/02/25 17:28:12;;;;;;;2.67;0.43;;;;;;;10.49;49.96;98874.94;10432070;28;20034;-84
2024/02/25 17:33:15;;;;;;;1.35;0.50;;;;;;;10.23;50.36;98871.25;10449946;28;20085;-87
2024/02/25 17:38:17;;;;;;;3.78;1.77;;;;;;;10.02;50.76;98868.81;10457370;28;20030;-87
2024/02/25 17:43:18;;;;;;;3.70;1.65;;;;;;;9.86;51.48;98878.13;10446508;28;20037;-86
2024/02/25 17:48:20;;;;;;;3.58;0.93;;;;;;;9.69;51.60;98878.53;10451110;28;20030;-87
2024/02/25 17:53:24;;;;;;;1.52;0.70;;;;;;;9.53;51.95;98865.53;10437597;28;20224;-85
2024/02/25 17:58:27;;;;;;;3.10;1.38;;;;;;;9.41;52.60;98867.19;10418954;28;20038;-87
2024/02/25 18:03:32;;;;;;;4.05;0.80;;;;;;;9.39;52.48;98861.19;10432780;28;20057;-86
2024/02/25 18:08:34;;;;;;;2.80;0.90;;;;;;;9.37;52.61;98850.66;10455605;22;20080;-59
2024/02/25 18:13:36;;;;;;;4.30;2.35;;;;;;;9.36;52.85;98849.03;10412200;28;20134;-59
2024/02/25 18:18:37;;;;;;;3.95;1.67;;;;;;;9.36;52.96;98840.13;10406330;28;20045;-58
2024/02/25 18:23:39;;;;;;;5.80;2.65;;;;;;;9.29;53.38;98840.16;10411257;28;20041;-58
2024/02/25 18:28:40;;;;;;;8.75;3.28;;;;;;;9.18;53.69;98836.19;10376223;28;20042;-58
2024/02/25 18:33:42;;;;;;;2.97;1.50;;;;;;;9.04;54.48;98829.19;10395563;28;20053;-59
2024/02/25 18:38:43;;;;;;;3.92;1.20;;;;;;;8.92;54.55;98823.59;10393263;28;20042;-58
2024/02/25 18:43:45;;;;;;;1.08;0.50;;;;;;;8.77;55.34;98826.47;10413860;22;20048;-82
2024/02/25 18:48:46;;;;;;;2.13;0.60;;;;;;;8.59;55.67;98816.31;10390167;28;20095;-80
2024/02/25 18:53:48;;;;;;;1.10;0.50;;;;;;;8.55;55.82;98820.41;10388439;28;20052;-83
2024/02/25 18:58:50;;;;;;;4.35;1.08;;;;;;;8.52;55.94;98810.09;10405838;28;20046;-84
2024/02/25 19:03:52;;;;;;;10.75;3.67;;;;;;;8.57;55.93;98804.97;10408248;28;20128;-84
2024/02/25 19:08:54;;;;;;;16.50;5.53;;;;;;;8.62;55.88;98799.00;10401718;28;20038;-83
2024/02/25 19:13:55;;;;;;;5.75;1.40;;;;;;;8.49;56.90;98799.78;10380244;28;20137;-90
2024/02/25 19:18:57;;;;;;;4.15;1.98;;;;;;;8.37;56.93;98791.47;10342198;28;20053;-90
2024/02/25 19:23:59;;;;;;;7.50;1.65;;;;;;;8.32;57.17;98788.56;10325237;28;20062;-89
2024/02/25 19:29:01;;;;;;;24.30;4.97;;;;;;;8.41;57.12;98782.06;10326763;28;20053;-89
2024/02/25 19:34:03;;;;;;;10.52;3.28;;;;;;;8.49;57.49;98791.75;10332040;28;20050;-89
2024/02/25 19:39:07;;;;;;;8.25;3.13;;;;;;;8.43;57.12;98787.19;10322589;28;20490;-90
2024/02/25 19:44:09;;;;;;;4.68;1.42;;;;;;;8.25;58.35;98777.81;10317613;28;20047;-90
2024/02/25 19:49:11;;;;;;;3.78;1.92;;;;;;;8.33;58.29;98764.28;10314674;28;20193;-88
2024/02/25 19:54:14;;;;;;;2.53;1.20;;;;;;;8.44;58.50;98762.06;10322012;28;20053;-89
2024/02/25 19:59:16;;;;;;;6.90;1.45;;;;;;;8.36;58.38;98756.88;10320738;28;20070;-89
2024/02/25 20:04:17;;;;;;;3.35;1.55;;;;;;;8.25;58.33;98744.88;10320189;28;20049;-90
2024/02/25 20:09:19;;;;;;;3.45;1.58;;;;;;;8.23;58.86;98738.91;10320018;28;20049;-90
2024/02/25 20:14:21;;;;;;;4.10;1.48;;;;;;;8.28;58.94;98744.50;10327312;28;20051;-91
2024/02/25 20:19:23;;;;;;;8.85;2.60;;;;;;;8.37;58.25;98732.56;10332833;28;20046;-90
2024/02/25 20:24:25;;;;;;;5.90;3.15;;;;;;;8.44;58.16;98733.44;10329932;28;20042;-86
2024/02/25 20:29:29;;;;;;;2.92;1.17;;;;;;;8.41;58.52;98730.31;10330801;28;20038;-85
2024/02/25 20:34:30;;;;;;;2.83;1.20;;;;;;;8.40;58.09;98721.47;10331128;28;20616;-86
2024/02/25 20:39:32;;;;;;;2.55;0.90;;;;;;;8.35;58.81;98718.53;10289440;28;20054;-86
2024/02/25 20:44:34;;;;;;;2.55;1.20;;;;;;;8.40;58.51;98724.13;10308710;28;20046;-86
2024/02/25 20:49:36;;;;;;;4.68;1.50;;;;;;;8.45;58.79;98713.69;10328331;28;20056;-86
2024/02/25 20:54:39;;;;;;;4.20;0.98;;;;;;;8.51;58.27;98704.00;10332065;28;20500;-86
2024/02/25 20:59:41;;;;;;;1.75;0.90;;;;;;;8.56;58.11;98703.41;10314183;28;20042;-86
2024/02/25 21:04:42;;;;;;;0.73;0.55;;;;;;;8.56;58.24;98690.81;10327779;28;20049;-86
2024/02/25 21:09:44;;;;;;;2.22;0.80;;;;;;;8.62;58.20;98683.84;10330712;28;20084;-85
2024/02/25 21:14:46;;;;;;;0.70;0.38;;;;;;;8.67;58.02;98689.41;10329182;28;20532;-85
2024/02/25 21:19:49;;;;;;;0.63;0.32;;;;;;;8.67;58.20;98692.09;10321531;28;20110;-84
2024/02/25 21:24:51;;;;;;;1.15;0.38;;;;;;;8.64;57.94;98684.44;10327667;28;20054;-85
2024/02/25 21:29:52;;;;;;;0.68;0.45;;;;;;;8.67;58.28;98686.72;10325813;28;20050;-86
2024/02/25 21:34:54;;;;;;;2.20;0.60;;;;;;;8.72;58.27;98671.66;10312105;28;20046;-85
2024/02/25 21:39:57;;;;;;;1.08;0.40;;;;;;;8.74;57.64;98663.44;10325458;28;20502;-85
2024/02/25 21:44:59;;;;;;;1.17;0.40;;;;;;;8.81;58.17;98658.91;10324868;28;20054;-84
2024/02/25 21:50:01;;;;;;;0.93;0.40;;;;;;;8.78;58.05;98653.94;10305050;28;20038;-85
2024/02/25 21:55:04;;;;;;;1.95;0.30;;;;;;;8.77;57.71;98656.81;10315067;28;20058;-85
2024/02/25 22:00:08;;;;;;;1.20;0.50;;;;;;;8.83;57.96;98648.81;10302061;28;20552;-85
2024/02/25 22:05:10;;;;;;;1.30;0.30;;;;;;;8.88;57.69;98657.03;10306947;28;20066;-85
2024/02/25 22:10:12;;;;;;;0.65;0.30;;;;;;;8.94;57.37;98652.72;10331322;28;20055;-85
2024/02/25 22:15:14;;;;;;;0.82;0.30;;;;;;;8.93;57.65;98653.75;10332104;28;20161;-85
2024/02/25 22:20:19;;;;;;;1.13;0.30;;;;;;;8.95;57.69;98642.84;10330432;28;20045;-85
2024/02/25 22:25:21;;;;;;;0.85;0.25;;;;;;;8.98;57.58;98634.34;10313689;28;20114;-85
2024/02/25 22:30:23;;;;;;;1.10;0.30;;;;;;;9.04;57.13;98626.31;10341699;28;20042;-85
2024/02/25 22:35:25;;;;;;;0.60;0.30;;;;;;;9.06;57.33;98632.31;10329585;28;20130;-85
2024/02/25 22:40:26;;;;;;;0.77;0.20;;;;;;;9.06;57.48;98629.63;10332763;28;20046;-85
2024/02/25 22:45:30;;;;;;;0.30;0.17;;;;;;;9.09;57.52;98633.72;10320876;28;20039;-85
2024/02/25 22:50:34;;;;;;;1.75;0.20;;;;;;;9.07;57.55;98625.91;10321134;28;20155;-84
2024/02/25 22:55:36;;;;;;;0.55;0.30;;;;;;;9.10;57.07;98624.66;10332353;28;20494;-85
2024/02/25 23:00:39;;;;;;;0.95;0.28;;;;;;;9.10;57.30;98617.44;10340947;28;20041;-85
2024/02/25 23:05:41;;;;;;;0.22;0.20;;;;;;;9.10;56.82;98613.91;10320497;28;20148;-85
2024/02/25 23:10:42;;;;;;;0.85;0.22;;;;;;;9.07;56.87;98609.81;10324873;28;20049;-85
2024/02/25 23:15:44;;;;;;;0.30;0.20;;;;;;;9.05;57.15;98613.75;10333010;28;20056;-85
2024/02/25 23:20:46;;;;;;;1.00;0.30;;;;;;;9.10;57.23;98612.09;10313455;28;20043;-85
2024/02/25 23:25:47;;;;;;;1.55;0.40;;;;;;;9.12;56.82;98618.06;10339412;28;20562;-84
2024/02/25 23:30:49;;;;;;;0.65;0.20;;;;;;;9.04;57.27;98620.13;10319950;28;20146;-85
2024/02/25 23:35:51;;;;;;;0.75;0.30;;;;;;;9.08;57.07;98624.03;10334847;28;20409;-84